createdAt,value
2022-09-06T00:00:58.676Z,55.22
2022-09-06T00:03:25.324Z,55.00
2022-09-06T00:05:51.829Z,55.07
2022-09-06T00:08:18.338Z,55.38
2022-09-06T00:10:44.850Z,55.12
2022-09-06T00:13:12.031Z,54.81
2022-09-06T00:15:39.110Z,54.96
2022-09-06T00:18:07.437Z,55.17
2022-09-06T00:20:34.585Z,55.46
2022-09-06T00:23:04.660Z,55.53
2022-09-06T00:25:33.208Z,55.58
2022-09-06T00:28:04.417Z,55.69
2022-09-06T00:30:33.374Z,55.75
2022-09-06T00:33:00.434Z,55.84
2022-09-06T00:35:27.920Z,56.47
2022-09-06T00:38:02.210Z,56.69
2022-09-06T00:40:32.233Z,56.70
2022-09-06T00:42:58.712Z,56.28
2022-09-06T00:45:27.962Z,56.98
2022-09-06T00:47:55.754Z,56.94
2022-09-06T00:50:22.551Z,56.48
2022-09-06T00:52:52.550Z,56.31
2022-09-06T00:55:20.892Z,56.47
2022-09-06T00:57:49.067Z,56.27
2022-09-06T01:00:15.600Z,56.26
2022-09-06T01:02:42.454Z,56.72
2022-09-06T01:05:10.492Z,56.26
2022-09-06T01:07:45.069Z,56.51
2022-09-06T01:10:20.440Z,56.61
2022-09-06T01:12:59.680Z,56.50
2022-09-06T01:15:35.582Z,56.41
2022-09-06T01:18:42.110Z,56.80
2022-09-06T01:21:21.135Z,56.95
2022-09-06T01:24:02.870Z,56.82
2022-09-06T01:26:44.280Z,57.09
2022-09-06T01:29:26.497Z,57.04
2022-09-06T01:32:19.254Z,57.72
2022-09-06T01:34:53.864Z,57.89
2022-09-06T01:37:23.399Z,57.11
2022-09-06T01:39:50.200Z,56.96
2022-09-06T01:42:26.059Z,57.03
2022-09-06T01:44:59.768Z,57.22
2022-09-06T01:47:45.050Z,57.26
2022-09-06T01:50:11.500Z,57.03
2022-09-06T01:53:09.327Z,57.40
2022-09-06T01:55:52.890Z,57.33
2022-09-06T01:58:19.332Z,57.69
2022-09-06T02:01:13.857Z,57.88
2022-09-06T02:04:18.706Z,57.54
2022-09-06T02:06:57.763Z,57.74
2022-09-06T02:09:29.131Z,57.89
2022-09-06T02:12:00.811Z,58.02
2022-09-06T02:14:37.937Z,58.05
2022-09-06T02:17:11.121Z,58.23
2022-09-06T02:19:48.855Z,58.15
2022-09-06T02:22:21.458Z,58.46
2022-09-06T02:24:53.114Z,58.41
2022-09-06T02:27:19.844Z,58.08
2022-09-06T02:29:46.566Z,58.04
2022-09-06T02:32:23.307Z,57.96
2022-09-06T02:34:56.240Z,58.15
2022-09-06T02:37:26.933Z,57.99
2022-09-06T02:39:55.564Z,57.96
2022-09-06T02:42:24.261Z,58.16
2022-09-06T02:44:50.832Z,57.97
2022-09-06T02:47:17.450Z,59.10
2022-09-06T02:49:43.983Z,59.13
2022-09-06T02:52:10.483Z,58.62
2022-09-06T02:54:36.973Z,57.73
2022-09-06T02:57:03.563Z,57.89
2022-09-06T02:59:30.060Z,57.81
2022-09-06T03:01:56.597Z,57.72
2022-09-06T03:04:23.133Z,58.03
2022-09-06T03:06:49.615Z,57.52
2022-09-06T03:09:16.096Z,57.93
2022-09-06T03:11:42.886Z,58.38
2022-09-06T03:14:09.384Z,58.45
2022-09-06T03:16:35.927Z,57.94
2022-09-06T03:19:02.832Z,57.95
2022-09-06T03:21:29.344Z,58.61
2022-09-06T03:23:55.850Z,58.07
2022-09-06T03:26:22.368Z,58.55
2022-09-06T03:28:48.901Z,58.27
2022-09-06T03:31:15.615Z,58.06
2022-09-06T03:33:42.168Z,57.86
2022-09-06T03:36:08.733Z,58.21
2022-09-06T03:38:35.208Z,57.67
2022-09-06T03:41:01.831Z,58.00
2022-09-06T03:43:28.548Z,57.94
2022-09-06T03:45:57.120Z,57.79
2022-09-06T03:48:26.697Z,57.55
2022-09-06T03:50:56.045Z,57.27
2022-09-06T03:53:24.786Z,56.65
2022-09-06T03:55:53.976Z,56.52
2022-09-06T03:58:22.533Z,56.07
2022-09-06T04:00:49.380Z,56.04
2022-09-06T04:03:16.146Z,56.24
2022-09-06T04:05:46.701Z,56.21
2022-09-06T04:08:13.224Z,55.64
2022-09-06T04:10:39.715Z,55.25
2022-09-06T04:13:06.298Z,55.72
2022-09-06T04:15:32.795Z,55.66
2022-09-06T04:17:59.353Z,55.90
2022-09-06T04:20:25.859Z,55.57
2022-09-06T04:22:52.376Z,56.30
2022-09-06T04:25:18.953Z,56.01
2022-09-06T04:27:45.506Z,55.76
2022-09-06T04:30:12.097Z,56.29
2022-09-06T04:32:38.608Z,56.27
2022-09-06T04:35:05.657Z,55.85
2022-09-06T04:37:32.180Z,55.57
2022-09-06T04:39:58.695Z,55.98
2022-09-06T04:42:25.275Z,55.28
2022-09-06T04:44:51.802Z,55.20
2022-09-06T04:47:18.369Z,55.17
2022-09-06T04:49:45.922Z,55.53
2022-09-06T04:52:12.468Z,55.53
2022-09-06T04:54:39.079Z,55.83
2022-09-06T04:57:05.816Z,55.55
2022-09-06T04:59:32.948Z,55.85
2022-09-06T05:01:59.749Z,55.77
2022-09-06T05:04:26.624Z,55.74
2022-09-06T05:07:05.610Z,55.64
2022-09-06T05:09:33.688Z,55.87
2022-09-06T05:12:00.698Z,55.93
2022-09-06T05:14:28.396Z,55.63
2022-09-06T05:16:55.659Z,55.42
2022-09-06T05:19:22.489Z,55.44
2022-09-06T05:21:51.413Z,55.43
2022-09-06T05:24:18.075Z,55.38
2022-09-06T05:26:44.607Z,54.87
2022-09-06T05:29:11.164Z,54.96
2022-09-06T05:31:37.810Z,55.22
2022-09-06T05:34:04.442Z,55.69
2022-09-06T05:36:31.249Z,55.53
2022-09-06T05:38:58.124Z,55.94
2022-09-06T05:41:25.105Z,55.60
2022-09-06T05:43:51.780Z,55.91
2022-09-06T05:46:18.405Z,55.98
2022-09-06T05:48:52.070Z,55.95
2022-09-06T05:51:18.632Z,56.20
2022-09-06T05:53:45.796Z,56.24
2022-09-06T05:56:15.094Z,56.25
2022-09-06T05:58:41.624Z,55.86
2022-09-06T06:01:15.856Z,55.64
2022-09-06T06:03:43.323Z,55.84
2022-09-06T06:06:09.871Z,54.74
2022-09-06T06:08:36.378Z,55.15
2022-09-06T06:11:03.042Z,55.49
2022-09-06T06:13:30.418Z,55.11
2022-09-06T06:15:56.937Z,54.55
2022-09-06T06:18:23.502Z,54.01
2022-09-06T06:20:50.057Z,53.86
2022-09-06T06:23:16.546Z,54.04
2022-09-06T06:25:43.489Z,53.23
2022-09-06T06:28:09.983Z,52.66
2022-09-06T06:30:36.475Z,52.28
2022-09-06T06:33:03.144Z,52.01
2022-09-06T06:35:29.722Z,51.80
2022-09-06T06:37:59.066Z,48.78
2022-09-06T06:40:25.658Z,48.04
2022-09-06T06:42:52.158Z,47.61
2022-09-06T06:45:18.663Z,47.07
2022-09-06T06:47:49.856Z,47.46
2022-09-06T06:50:16.756Z,47.70
2022-09-06T06:52:43.357Z,47.89
2022-09-06T06:55:09.898Z,47.31
2022-09-06T06:57:36.530Z,47.61
2022-09-06T07:00:04.199Z,46.90
2022-09-06T07:02:30.788Z,47.29
2022-09-06T07:04:57.316Z,46.53
2022-09-06T07:07:31.147Z,46.17
2022-09-06T07:12:44.735Z,46.38
2022-09-06T07:15:11.260Z,45.89
2022-09-06T07:17:37.756Z,46.45
2022-09-06T07:22:39.392Z,45.10
2022-09-06T07:25:07.972Z,44.69
2022-09-06T07:27:50.312Z,44.60
2022-09-06T07:30:17.878Z,44.51
2022-09-06T07:32:44.369Z,44.21
2022-09-06T07:35:10.858Z,43.90
2022-09-06T07:37:37.363Z,44.38
2022-09-06T07:40:04.264Z,43.94
2022-09-06T07:42:36.209Z,44.57
2022-09-06T07:45:03.282Z,44.35
2022-09-06T07:53:13.847Z,46.52
2022-09-06T07:55:42.531Z,46.92
2022-09-06T07:58:09.125Z,46.78
2022-09-06T08:00:35.967Z,47.00
2022-09-06T08:03:02.527Z,46.75
2022-09-06T08:11:02.447Z,48.40
2022-09-06T08:13:29.369Z,49.50
2022-09-06T08:16:05.025Z,49.86
2022-09-06T08:18:31.742Z,51.34
2022-09-06T08:21:12.410Z,57.06
2022-09-06T08:23:44.408Z,62.64
2022-09-06T08:26:10.995Z,65.15
2022-09-06T08:28:37.543Z,64.34
2022-09-06T08:31:13.243Z,62.88
2022-09-06T08:33:41.228Z,65.13
2022-09-06T08:36:09.533Z,71.22
2022-09-06T08:38:36.980Z,67.78
2022-09-06T08:41:26.083Z,71.89
2022-09-06T08:47:09.626Z,69.35
2022-09-06T08:50:04.806Z,69.71
2022-09-06T08:55:51.620Z,60.51
2022-09-06T08:58:52.560Z,59.14
2022-09-06T09:01:24.599Z,63.40
2022-09-06T09:03:58.374Z,65.04
2022-09-06T09:06:28.093Z,67.19
2022-09-06T09:09:08.307Z,64.71
2022-09-06T09:11:35.533Z,63.92
2022-09-06T09:14:16.783Z,61.03
2022-09-06T09:16:44.323Z,55.80
2022-09-06T09:19:10.958Z,61.97
2022-09-06T09:21:39.808Z,61.36
2022-09-06T09:24:09.480Z,61.44
2022-09-06T09:26:53.281Z,65.68
2022-09-06T09:29:25.316Z,65.62
2022-09-06T09:31:56.022Z,65.29
2022-09-06T09:34:36.029Z,68.17
2022-09-06T09:40:32.930Z,71.75
2022-09-06T09:43:16.626Z,73.21
2022-09-06T09:45:43.883Z,70.55
2022-09-06T09:48:26.455Z,73.90
2022-09-06T09:50:54.369Z,73.27
2022-09-06T09:53:23.600Z,73.67
2022-09-06T09:55:57.409Z,74.85
2022-09-06T09:58:35.905Z,75.44
2022-09-06T10:01:25.470Z,74.13
2022-09-06T10:09:39.460Z,69.97
2022-09-06T10:12:07.038Z,67.67
2022-09-06T10:14:46.502Z,64.26
2022-09-06T10:17:49.951Z,62.74
2022-09-06T10:20:16.924Z,61.96
2022-09-06T10:26:17.778Z,60.10
2022-09-06T10:28:44.453Z,59.97
2022-09-06T10:31:32.511Z,58.86
2022-09-06T10:34:07.495Z,58.21
2022-09-06T10:36:37.740Z,56.30
2022-09-06T10:39:30.850Z,55.23
2022-09-06T10:42:17.241Z,56.77
2022-09-06T10:45:04.424Z,56.11
2022-09-06T10:48:03.698Z,56.60
2022-09-06T10:50:49.580Z,55.75
2022-09-06T10:53:24.443Z,54.21
2022-09-06T10:56:25.509Z,54.88
2022-09-06T10:59:38.226Z,56.06
2022-09-06T11:02:43.010Z,55.46
2022-09-06T11:05:48.064Z,56.16
2022-09-06T11:08:50.319Z,56.33
2022-09-06T11:11:35.080Z,56.35
2022-09-06T11:14:09.498Z,57.12
2022-09-06T11:16:47.080Z,55.50
2022-09-06T11:19:22.546Z,55.04
2022-09-06T11:22:26.395Z,55.21
2022-09-06T11:25:14.610Z,55.31
2022-09-06T11:27:48.469Z,55.58
2022-09-06T11:30:18.013Z,55.14
2022-09-06T11:32:49.385Z,55.04
2022-09-06T11:35:25.729Z,54.23
2022-09-06T11:38:19.031Z,54.71
2022-09-06T11:40:50.250Z,55.52
2022-09-06T11:43:49.700Z,54.51
2022-09-06T11:46:48.511Z,53.73
2022-09-06T11:49:15.060Z,54.01
2022-09-06T11:51:43.995Z,54.03
2022-09-06T11:54:19.275Z,53.85
2022-09-06T11:56:45.756Z,55.07
2022-09-06T11:59:17.815Z,54.37
2022-09-06T12:02:01.869Z,54.72
2022-09-06T12:05:03.166Z,54.57
2022-09-06T12:07:32.613Z,54.72
2022-09-06T12:10:30.369Z,53.70
2022-09-06T12:12:58.496Z,53.90
2022-09-06T12:15:45.772Z,53.57
2022-09-06T12:18:47.139Z,53.42
2022-09-06T12:21:34.803Z,52.37
2022-09-06T12:24:02.217Z,52.49
2022-09-06T12:26:54.488Z,52.32
2022-09-06T12:29:27.246Z,52.26
2022-09-06T12:31:57.477Z,52.52
2022-09-06T12:34:31.222Z,51.46
2022-09-06T12:37:01.505Z,51.38
2022-09-06T12:39:28.367Z,50.70
2022-09-06T12:42:10.574Z,50.89
2022-09-06T12:44:50.552Z,52.00
2022-09-06T12:47:25.103Z,51.99
2022-09-06T12:50:23.887Z,50.80
2022-09-06T12:52:54.624Z,51.11
2022-09-06T12:55:29.611Z,50.78
2022-09-06T12:58:08.009Z,50.48
2022-09-06T13:00:51.020Z,49.22
2022-09-06T13:03:26.117Z,49.32
2022-09-06T13:05:56.433Z,49.18
2022-09-06T13:08:36.389Z,48.32
2022-09-06T13:11:09.364Z,47.63
2022-09-06T13:13:36.617Z,46.73
2022-09-06T13:16:03.479Z,47.09
2022-09-06T13:18:37.972Z,46.21
2022-09-06T13:21:06.015Z,47.66
2022-09-06T13:23:49.715Z,46.93
2022-09-06T13:26:33.875Z,46.97
2022-09-06T13:29:16.353Z,46.33
2022-09-06T13:31:48.075Z,45.62
2022-09-06T13:34:22.154Z,45.76
2022-09-06T13:36:52.448Z,45.95
2022-09-06T13:39:33.572Z,45.13
2022-09-06T13:42:05.917Z,44.34
2022-09-06T13:44:35.194Z,44.64
2022-09-06T13:47:02.315Z,42.90
2022-09-06T13:49:28.884Z,42.95
2022-09-06T13:52:00.352Z,42.61
2022-09-06T13:54:27.950Z,41.62
2022-09-06T13:56:54.588Z,41.19
2022-09-06T13:59:21.504Z,41.58
2022-09-06T14:02:11.045Z,37.61
2022-09-06T14:04:38.267Z,36.40
2022-09-06T14:07:05.301Z,35.66
2022-09-06T14:09:31.820Z,36.17
2022-09-06T14:11:58.555Z,34.31
2022-09-06T14:14:25.144Z,33.83
2022-09-06T14:16:51.721Z,34.36
2022-09-06T14:19:19.457Z,32.70
2022-09-06T14:21:45.931Z,31.90
2022-09-06T14:24:12.446Z,30.43
2022-09-06T14:26:39.009Z,30.53
2022-09-06T14:29:05.812Z,30.72
2022-09-06T14:31:32.401Z,30.46
2022-09-06T14:34:00.528Z,29.81
2022-09-06T14:36:29.554Z,29.79
2022-09-06T14:38:58.040Z,29.41
2022-09-06T14:41:25.147Z,29.29
2022-09-06T14:43:54.531Z,29.33
2022-09-06T14:46:23.522Z,29.67
2022-09-06T14:48:57.756Z,30.34
2022-09-06T14:51:27.367Z,30.13
2022-09-06T14:53:58.429Z,30.53
2022-09-06T14:56:26.138Z,31.25
2022-09-06T14:58:53.833Z,32.17
2022-09-06T15:01:23.925Z,34.41
2022-09-06T15:03:55.242Z,35.33
2022-09-06T15:06:24.790Z,36.25
2022-09-06T15:08:55.659Z,36.90
2022-09-06T15:11:40.205Z,37.36
2022-09-06T15:14:18.366Z,38.34
2022-09-06T15:16:46.495Z,38.28
2022-09-06T15:19:13.519Z,38.56
2022-09-06T15:21:40.537Z,38.77
2022-09-06T15:24:11.526Z,36.68
2022-09-06T15:26:39.475Z,36.70
2022-09-06T15:29:05.937Z,38.88
2022-09-06T15:31:36.157Z,40.80
2022-09-06T15:34:02.690Z,37.99
2022-09-06T15:36:29.346Z,37.39
2022-09-06T15:38:58.695Z,36.69
2022-09-06T15:41:27.228Z,37.13
2022-09-06T15:43:59.065Z,37.59
2022-09-06T15:46:34.714Z,36.59
2022-09-06T15:49:05.425Z,36.52
2022-09-06T15:51:33.727Z,36.76
2022-09-06T15:54:00.236Z,36.70
2022-09-06T15:56:27.120Z,37.10
2022-09-06T15:58:53.666Z,37.32
2022-09-06T16:01:25.126Z,36.77
2022-09-06T16:03:54.639Z,37.16
2022-09-06T16:06:27.865Z,38.02
2022-09-06T16:09:01.867Z,38.46
2022-09-06T16:11:29.911Z,38.47
2022-09-06T16:13:56.731Z,39.95
2022-09-06T16:16:24.077Z,40.07
2022-09-06T16:18:51.104Z,40.51
2022-09-06T16:21:21.148Z,42.17
2022-09-06T16:23:53.092Z,43.04
2022-09-06T16:26:21.827Z,42.79
2022-09-06T16:28:50.588Z,43.01
2022-09-06T16:31:18.487Z,42.66
2022-09-06T16:33:45.972Z,42.85
2022-09-06T16:36:13.253Z,42.50
2022-09-06T16:38:40.799Z,42.66
2022-09-06T16:41:16.047Z,42.36
2022-09-06T16:43:44.027Z,42.02
2022-09-06T16:46:11.332Z,42.76
2022-09-06T16:48:38.828Z,42.51
2022-09-06T16:51:13.669Z,42.40
2022-09-06T16:53:42.891Z,42.28
2022-09-06T16:56:11.504Z,42.46
2022-09-06T16:58:38.701Z,42.87
2022-09-06T17:01:06.478Z,49.13
2022-09-06T17:03:34.509Z,54.61
2022-09-06T17:06:01.000Z,57.15
2022-09-06T17:08:27.617Z,60.93
2022-09-06T17:10:54.178Z,65.09
2022-09-06T17:13:20.853Z,66.80
2022-09-06T17:15:54.045Z,67.92
2022-09-06T17:18:20.854Z,70.08
2022-09-06T17:20:58.973Z,71.77
2022-09-06T17:23:25.470Z,72.88
2022-09-06T17:25:52.697Z,72.82
2022-09-06T17:28:19.486Z,73.99
2022-09-06T17:30:46.401Z,74.12
2022-09-06T17:33:13.232Z,73.03
2022-09-06T17:35:39.972Z,71.32
2022-09-06T17:38:06.534Z,69.91
2022-09-06T17:40:33.147Z,69.22
2022-09-06T17:42:59.695Z,69.65
2022-09-06T17:45:26.431Z,69.38
2022-09-06T17:47:52.919Z,69.21
2022-09-06T17:50:19.525Z,69.59
2022-09-06T17:52:46.056Z,70.23
2022-09-06T17:55:12.546Z,68.52
2022-09-06T17:57:39.048Z,68.13
2022-09-06T18:00:05.825Z,66.43
2022-09-06T18:02:32.315Z,64.65
2022-09-06T18:04:58.911Z,63.40
2022-09-06T18:07:25.443Z,63.37
2022-09-06T18:09:51.972Z,62.25
2022-09-06T18:12:18.469Z,61.24
2022-09-06T18:14:44.957Z,60.05
2022-09-06T18:17:11.499Z,60.14
2022-09-06T18:19:37.994Z,59.96
2022-09-06T18:22:04.548Z,59.94
2022-09-06T18:24:31.156Z,59.36
2022-09-06T18:26:57.676Z,59.07
2022-09-06T18:29:24.178Z,58.64
2022-09-06T18:31:50.790Z,58.99
2022-09-06T18:34:17.392Z,59.35
2022-09-06T18:36:43.894Z,60.51
2022-09-06T18:39:10.489Z,59.94
2022-09-06T18:41:36.967Z,59.87
2022-09-06T18:44:05.239Z,60.52
2022-09-06T18:46:34.391Z,59.96
2022-09-06T18:49:00.938Z,60.07
2022-09-06T18:51:28.069Z,59.54
2022-09-06T18:53:56.922Z,59.13
2022-09-06T18:56:23.798Z,59.36
2022-09-06T18:58:50.407Z,58.99
2022-09-06T19:01:18.394Z,58.40
2022-09-06T19:03:45.081Z,58.28
2022-09-06T19:06:16.146Z,58.32
2022-09-06T19:08:43.679Z,56.50
2022-09-06T19:11:16.148Z,54.62
2022-09-06T19:13:44.950Z,53.29
2022-09-06T19:16:13.595Z,52.31
2022-09-06T19:18:41.181Z,51.39
2022-09-06T19:21:12.609Z,51.76
2022-09-06T19:23:41.563Z,52.03
2022-09-06T19:26:20.487Z,51.08
2022-09-06T19:29:00.571Z,51.67
2022-09-06T19:31:30.457Z,51.72
2022-09-06T19:33:57.871Z,52.27
2022-09-06T19:36:26.458Z,51.75
2022-09-06T19:39:04.342Z,51.47
2022-09-06T19:41:35.533Z,51.89
2022-09-06T19:44:02.225Z,51.44
2022-09-06T19:46:28.823Z,51.60
2022-09-06T19:48:55.819Z,51.40
2022-09-06T19:51:22.687Z,52.23
2022-09-06T19:53:52.002Z,52.10
2022-09-06T19:56:22.252Z,51.99
2022-09-06T19:58:54.436Z,52.32
2022-09-06T20:01:21.608Z,52.34
2022-09-06T20:03:48.192Z,52.75
2022-09-06T20:06:14.697Z,53.44
2022-09-06T20:08:41.980Z,55.02
2022-09-06T20:11:10.526Z,55.16
2022-09-06T20:13:38.669Z,55.33
2022-09-06T20:16:07.480Z,55.34
2022-09-06T20:18:34.059Z,55.01
2022-09-06T20:21:00.920Z,55.00
2022-09-06T20:23:28.719Z,55.19
2022-09-06T20:26:06.650Z,56.12
2022-09-06T20:28:34.633Z,56.39
2022-09-06T20:31:04.514Z,56.65
2022-09-06T20:33:31.096Z,56.95
2022-09-06T20:36:00.508Z,56.78
2022-09-06T20:38:27.085Z,57.12
2022-09-06T20:41:17.533Z,56.61
2022-09-06T20:43:44.579Z,56.87
2022-09-06T20:46:12.564Z,56.67
2022-09-06T20:48:43.768Z,56.84
2022-09-06T20:51:14.566Z,57.11
2022-09-06T20:53:41.210Z,56.28
2022-09-06T20:56:13.756Z,56.58
2022-09-06T20:58:41.058Z,56.81
2022-09-06T21:01:13.672Z,56.18
2022-09-06T21:03:42.341Z,56.21
2022-09-06T21:06:11.373Z,57.75
2022-09-06T21:08:42.562Z,57.32
2022-09-06T21:11:09.687Z,56.95
2022-09-06T21:13:37.360Z,57.66
2022-09-06T21:16:05.173Z,57.98
2022-09-06T21:18:33.169Z,57.62
2022-09-06T21:21:02.115Z,57.57
2022-09-06T21:23:31.747Z,57.61
2022-09-06T21:26:01.408Z,57.52
2022-09-06T21:28:34.669Z,57.21
2022-09-06T21:31:12.041Z,57.23
2022-09-06T21:33:42.331Z,57.22
2022-09-06T21:36:18.274Z,56.56
2022-09-06T21:38:47.273Z,57.51
2022-09-06T21:41:16.398Z,57.11
2022-09-06T21:43:43.729Z,57.77
2022-09-06T21:46:15.999Z,58.36
2022-09-06T21:48:45.763Z,58.31
2022-09-06T21:51:14.547Z,59.07
2022-09-06T21:53:46.621Z,59.01
2022-09-06T21:56:13.664Z,59.02
2022-09-06T21:58:40.531Z,59.27
2022-09-06T22:01:08.016Z,59.03
2022-09-06T22:03:37.366Z,59.10
2022-09-06T22:06:15.762Z,59.08
2022-09-06T22:08:43.377Z,58.98
2022-09-06T22:11:15.834Z,59.13
2022-09-06T22:13:43.574Z,58.87
2022-09-06T22:16:12.029Z,58.77
2022-09-06T22:18:39.033Z,58.87
2022-09-06T22:21:14.818Z,58.67
2022-09-06T22:23:41.395Z,58.71
2022-09-06T22:26:11.258Z,58.55
2022-09-06T22:28:38.995Z,58.73
2022-09-06T22:31:07.289Z,58.93
2022-09-06T22:33:34.515Z,58.74
2022-09-06T22:36:01.264Z,58.76
2022-09-06T22:38:29.846Z,58.66
2022-09-06T22:40:57.249Z,58.51
2022-09-06T22:43:24.117Z,58.46
2022-09-06T22:45:52.165Z,58.44
2022-09-06T22:48:19.249Z,59.34
2022-09-06T22:50:46.929Z,59.08
2022-09-06T22:53:13.505Z,58.42
2022-09-06T22:55:40.139Z,58.38
2022-09-06T22:58:06.664Z,57.93
2022-09-06T23:00:35.839Z,58.04
2022-09-06T23:03:02.584Z,58.19
2022-09-06T23:05:31.198Z,57.71
2022-09-06T23:07:57.671Z,58.12
2022-09-06T23:10:24.159Z,58.01
2022-09-06T23:12:54.232Z,58.33
2022-09-06T23:15:21.139Z,58.89
2022-09-06T23:17:47.660Z,59.56
2022-09-06T23:20:14.243Z,60.13
2022-09-06T23:22:41.370Z,59.63
2022-09-06T23:25:09.001Z,59.32
2022-09-06T23:27:35.609Z,59.22
2022-09-06T23:30:02.224Z,58.55
2022-09-06T23:32:28.979Z,58.29
2022-09-06T23:34:55.478Z,57.70
2022-09-06T23:37:21.955Z,57.17
2022-09-06T23:39:48.502Z,57.30
2022-09-06T23:42:15.056Z,57.29
2022-09-06T23:44:41.529Z,57.10
2022-09-06T23:47:08.067Z,57.49
2022-09-06T23:49:34.538Z,57.54
2022-09-06T23:52:01.102Z,57.24
2022-09-06T23:54:27.754Z,57.64
2022-09-06T23:56:54.248Z,57.46
2022-09-06T23:59:20.723Z,57.67
